EJU37FN LIMC-EHAM
Flight info
| Callsign | EJU37FN |
|---|---|
| Flight time | 1h 17m |
| Altitude | 34000 |
| Route | AOSTA DCT ORSUD DCT MOLUS DCT GILIR DCT PENDU DCT IXILU DCT EPL DCT ROUSY DCT KOMOB DCT BUB Y28 HELEN |
| Aircraft | A320/M-SDE3FGHIRWY/LB1 |
Departure
| Time | 2026-05-05 10:23 |
|---|---|
| Airport | Milan Malpensa International Airport (LIMC) |
Arrival
| Time | 2026-05-05 11:40 |
|---|---|
| Airport | Amsterdam Airport Schiphol (EHAM) |
| Time | Latitude | Longitude | Altitude | Speed | Heading |
|---|---|---|---|---|---|
| 2026-05-05 09:57 | 45.62821 | 8.71661 | 753 ft | 0 kts | 259° |
| 2026-05-05 10:09 | 45.62826 | 8.71693 | 751 ft | 4 kts | 255° |
| 2026-05-05 10:10 | 45.62834 | 8.71729 | 750 ft | 4 kts | 246° |
| 2026-05-05 10:10 | 45.62847 | 8.71762 | 751 ft | 4 kts | 221° |
| 2026-05-05 10:10 | 45.62864 | 8.71773 | 749 ft | 1 kts | 170° |
| 2026-05-05 10:12 | 45.62850 | 8.71777 | 750 ft | 7 kts | 171° |
| 2026-05-05 10:12 | 45.62771 | 8.71795 | 751 ft | 15 kts | 170° |
| 2026-05-05 10:13 | 45.62674 | 8.71826 | 752 ft | 13 kts | 155° |
| 2026-05-05 10:13 | 45.62663 | 8.71930 | 750 ft | 11 kts | 78° |
| 2026-05-05 10:13 | 45.62659 | 8.72023 | 751 ft | 10 kts | 132° |
| 2026-05-05 10:13 | 45.62574 | 8.72052 | 751 ft | 15 kts | 171° |
| 2026-05-05 10:14 | 45.62456 | 8.72085 | 750 ft | 18 kts | 168° |
| 2026-05-05 10:14 | 45.62342 | 8.72116 | 750 ft | 16 kts | 169° |
| 2026-05-05 10:14 | 45.62275 | 8.72135 | 752 ft | 14 kts | 169° |
| 2026-05-05 10:14 | 45.62197 | 8.72244 | 752 ft | 12 kts | 121° |
| 2026-05-05 10:15 | 45.62103 | 8.72293 | 752 ft | 19 kts | 169° |
| 2026-05-05 10:15 | 45.61952 | 8.72334 | 752 ft | 24 kts | 169° |
| 2026-05-05 10:15 | 45.61782 | 8.72382 | 752 ft | 26 kts | 168° |
| 2026-05-05 10:15 | 45.61602 | 8.72433 | 751 ft | 27 kts | 169° |
| 2026-05-05 10:16 | 45.61413 | 8.72484 | 749 ft | 26 kts | 169° |
| 2026-05-05 10:16 | 45.61253 | 8.72527 | 752 ft | 23 kts | 169° |
| 2026-05-05 10:16 | 45.61111 | 8.72570 | 751 ft | 18 kts | 155° |
| 2026-05-05 10:16 | 45.61085 | 8.72716 | 749 ft | 17 kts | 79° |
| 2026-05-05 10:17 | 45.61109 | 8.72901 | 749 ft | 20 kts | 79° |
| 2026-05-05 10:17 | 45.61157 | 8.73074 | 752 ft | 19 kts | 34° |
| 2026-05-05 10:17 | 45.61269 | 8.73179 | 749 ft | 20 kts | 33° |
| 2026-05-05 10:17 | 45.61346 | 8.73253 | 749 ft | 20 kts | 31° |
| 2026-05-05 10:18 | 45.61483 | 8.73244 | 751 ft | 20 kts | 349° |
| 2026-05-05 10:18 | 45.61603 | 8.73233 | 751 ft | 15 kts | 37° |
| 2026-05-05 10:18 | 45.61632 | 8.73378 | 753 ft | 15 kts | 82° |
| 2026-05-05 10:18 | 45.61632 | 8.73422 | 753 ft | 0 kts | 98° |
| 2026-05-05 10:21 | 45.61630 | 8.73433 | 753 ft | 3 kts | 106° |
| 2026-05-05 10:21 | 45.61614 | 8.73472 | 749 ft | 6 kts | 122° |
| 2026-05-05 10:21 | 45.61589 | 8.73545 | 751 ft | 10 kts | 107° |
| 2026-05-05 10:21 | 45.61592 | 8.73667 | 745 ft | 14 kts | 73° |
| 2026-05-05 10:22 | 45.61650 | 8.73729 | 745 ft | 7 kts | 351° |
| 2026-05-05 10:22 | 45.61671 | 8.73724 | 742 ft | 0 kts | 349° |
| 2026-05-05 10:22 | 45.61671 | 8.73723 | 742 ft | 1 kts | 349° |
| 2026-05-05 10:22 | 45.61871 | 8.73667 | 744 ft | 63 kts | 349° |
| 2026-05-05 10:23 | 45.62510 | 8.73492 | 745 ft | 120 kts | 349° |
| 2026-05-05 10:23 | 45.63482 | 8.73224 | 812 ft | 158 kts | 349° |
| 2026-05-05 10:23 | 45.64575 | 8.72931 | 1435 ft | 160 kts | 349° |
| 2026-05-05 10:23 | 45.65678 | 8.72656 | 2094 ft | 164 kts | 352° |
| 2026-05-05 10:24 | 45.66891 | 8.72609 | 2390 ft | 185 kts | 1° |
| 2026-05-05 10:24 | 45.68270 | 8.72617 | 2632 ft | 208 kts | 1° |
| 2026-05-05 10:24 | 45.69767 | 8.72614 | 3047 ft | 223 kts | 1° |
| 2026-05-05 10:24 | 45.71348 | 8.72567 | 3739 ft | 231 kts | 354° |
| 2026-05-05 10:25 | 45.72809 | 8.71603 | 4405 ft | 240 kts | 314° |
| 2026-05-05 10:25 | 45.73562 | 8.69479 | 5098 ft | 245 kts | 274° |
| 2026-05-05 10:25 | 45.73419 | 8.67080 | 5808 ft | 247 kts | 253° |
| 2026-05-05 10:25 | 45.72904 | 8.64716 | 6555 ft | 250 kts | 248° |
| 2026-05-05 10:26 | 45.72309 | 8.62391 | 7409 ft | 248 kts | 248° |
| 2026-05-05 10:26 | 45.71637 | 8.60116 | 8217 ft | 248 kts | 237° |
| 2026-05-05 10:26 | 45.70612 | 8.58019 | 8608 ft | 269 kts | 232° |
| 2026-05-05 10:26 | 45.69519 | 8.55769 | 9243 ft | 280 kts | 234° |
| 2026-05-05 10:27 | 45.68447 | 8.53409 | 10138 ft | 284 kts | 235° |
| 2026-05-05 10:27 | 45.67356 | 8.50941 | 10605 ft | 305 kts | 236° |
| 2026-05-05 10:27 | 45.66180 | 8.48274 | 10978 ft | 326 kts | 236° |
| 2026-05-05 10:27 | 45.64954 | 8.45494 | 11684 ft | 333 kts | 236° |
| 2026-05-05 10:28 | 45.63718 | 8.42687 | 12518 ft | 335 kts | 236° |
| 2026-05-05 10:28 | 45.62399 | 8.39921 | 13322 ft | 337 kts | 230° |
| 2026-05-05 10:28 | 45.60888 | 8.37338 | 14054 ft | 340 kts | 229° |
| 2026-05-05 10:28 | 45.59575 | 8.34513 | 14699 ft | 345 kts | 242° |
| 2026-05-05 10:29 | 45.58804 | 8.31239 | 15349 ft | 352 kts | 257° |
| 2026-05-05 10:29 | 45.58661 | 8.27724 | 15998 ft | 360 kts | 271° |
| 2026-05-05 10:29 | 45.59184 | 8.24199 | 16641 ft | 368 kts | 285° |
| 2026-05-05 10:29 | 45.60006 | 8.20720 | 17295 ft | 372 kts | 285° |
| 2026-05-05 10:30 | 45.60836 | 8.17189 | 17924 ft | 375 kts | 285° |
| 2026-05-05 10:30 | 45.61652 | 8.13689 | 18475 ft | 378 kts | 285° |
| 2026-05-05 10:30 | 45.62482 | 8.10099 | 18987 ft | 381 kts | 285° |
| 2026-05-05 10:30 | 45.63315 | 8.06489 | 19498 ft | 384 kts | 284° |
| 2026-05-05 10:31 | 45.64151 | 8.02860 | 20020 ft | 387 kts | 284° |
| 2026-05-05 10:31 | 45.64995 | 7.99193 | 20481 ft | 389 kts | 284° |
| 2026-05-05 10:31 | 45.65840 | 7.95498 | 20903 ft | 392 kts | 284° |
| 2026-05-05 10:31 | 45.66691 | 7.91782 | 21334 ft | 394 kts | 284° |
| 2026-05-05 10:32 | 45.67547 | 7.88045 | 21833 ft | 397 kts | 284° |
| 2026-05-05 10:32 | 45.68408 | 7.84281 | 22326 ft | 400 kts | 284° |
| 2026-05-05 10:32 | 45.69273 | 7.80487 | 22848 ft | 402 kts | 284° |
| 2026-05-05 10:32 | 45.70142 | 7.76679 | 23297 ft | 405 kts | 284° |
| 2026-05-05 10:33 | 45.71020 | 7.72830 | 23746 ft | 408 kts | 283° |
| 2026-05-05 10:33 | 45.71900 | 7.68959 | 24088 ft | 412 kts | 283° |
| 2026-05-05 10:33 | 45.72788 | 7.65039 | 24449 ft | 414 kts | 283° |
| 2026-05-05 10:33 | 45.73680 | 7.61103 | 24809 ft | 417 kts | 283° |
| 2026-05-05 10:34 | 45.74573 | 7.57153 | 25178 ft | 419 kts | 283° |
| 2026-05-05 10:34 | 45.75458 | 7.53220 | 25541 ft | 421 kts | 283° |
| 2026-05-05 10:34 | 45.76357 | 7.49208 | 25945 ft | 424 kts | 283° |
| 2026-05-05 10:34 | 45.77263 | 7.45176 | 26301 ft | 426 kts | 283° |
| 2026-05-05 10:35 | 45.78203 | 7.41138 | 26655 ft | 430 kts | 287° |
| 2026-05-05 10:35 | 45.79535 | 7.37256 | 27023 ft | 438 kts | 297° |
| 2026-05-05 10:35 | 45.81348 | 7.33697 | 27358 ft | 447 kts | 308° |
| 2026-05-05 10:35 | 45.83618 | 7.30589 | 27711 ft | 455 kts | 318° |
| 2026-05-05 10:36 | 45.86202 | 7.27921 | 28025 ft | 459 kts | 321° |
| 2026-05-05 10:36 | 45.88819 | 7.25275 | 28343 ft | 462 kts | 321° |
| 2026-05-05 10:36 | 45.91446 | 7.22606 | 28670 ft | 464 kts | 321° |
| 2026-05-05 10:36 | 45.94083 | 7.19916 | 28963 ft | 466 kts | 321° |
| 2026-05-05 10:37 | 45.96699 | 7.17241 | 29215 ft | 469 kts | 321° |
| 2026-05-05 10:37 | 45.99361 | 7.14519 | 29417 ft | 471 kts | 321° |
| 2026-05-05 10:37 | 46.02071 | 7.11739 | 29737 ft | 473 kts | 321° |
| 2026-05-05 10:37 | 46.04724 | 7.09015 | 29988 ft | 476 kts | 321° |
| 2026-05-05 10:38 | 46.07421 | 7.06243 | 30204 ft | 478 kts | 321° |
| 2026-05-05 10:38 | 46.10133 | 7.03457 | 30445 ft | 479 kts | 321° |
| 2026-05-05 10:38 | 46.12855 | 7.00658 | 30677 ft | 480 kts | 321° |
| 2026-05-05 10:38 | 46.15570 | 6.97863 | 31021 ft | 478 kts | 320° |
| 2026-05-05 10:39 | 46.18281 | 6.95070 | 31232 ft | 479 kts | 321° |
| 2026-05-05 10:39 | 46.20988 | 6.92271 | 31477 ft | 479 kts | 321° |
| 2026-05-05 10:39 | 46.23696 | 6.89469 | 31771 ft | 478 kts | 321° |
| 2026-05-05 10:39 | 46.26398 | 6.86674 | 32141 ft | 477 kts | 320° |
| 2026-05-05 10:40 | 46.29087 | 6.83886 | 32511 ft | 475 kts | 320° |
| 2026-05-05 10:40 | 46.31768 | 6.81101 | 32935 ft | 474 kts | 320° |
| 2026-05-05 10:40 | 46.34445 | 6.78320 | 33326 ft | 472 kts | 320° |
| 2026-05-05 10:40 | 46.37071 | 6.75588 | 33737 ft | 471 kts | 320° |
| 2026-05-05 10:41 | 46.39733 | 6.72814 | 33881 ft | 470 kts | 320° |
| 2026-05-05 10:41 | 46.42381 | 6.70053 | 33905 ft | 468 kts | 320° |
| 2026-05-05 10:41 | 46.48062 | 6.65363 | 33906 ft | 472 kts | 330° |
| 2026-05-05 10:42 | 46.56902 | 6.59151 | 33913 ft | 471 kts | 330° |
| 2026-05-05 10:43 | 46.62807 | 6.54980 | 33908 ft | 471 kts | 330° |
| 2026-05-05 10:43 | 46.68705 | 6.50810 | 33904 ft | 471 kts | 330° |
| 2026-05-05 10:44 | 46.74639 | 6.46604 | 33929 ft | 471 kts | 330° |
| 2026-05-05 10:44 | 46.80494 | 6.42434 | 33906 ft | 471 kts | 331° |
| 2026-05-05 10:45 | 46.86384 | 6.38231 | 33896 ft | 471 kts | 331° |
| 2026-05-05 10:45 | 46.92273 | 6.34017 | 33884 ft | 471 kts | 331° |
| 2026-05-05 10:46 | 46.98159 | 6.29809 | 33882 ft | 471 kts | 331° |
| 2026-05-05 10:46 | 47.04046 | 6.25577 | 33879 ft | 471 kts | 331° |
| 2026-05-05 10:47 | 47.09939 | 6.21342 | 33879 ft | 471 kts | 331° |
| 2026-05-05 10:47 | 47.15829 | 6.17085 | 33903 ft | 472 kts | 331° |
| 2026-05-05 10:48 | 47.21729 | 6.12818 | 33892 ft | 472 kts | 331° |
| 2026-05-05 10:48 | 47.27580 | 6.08591 | 33876 ft | 471 kts | 332° |
| 2026-05-05 10:49 | 47.33596 | 6.04737 | 33873 ft | 474 kts | 342° |
| 2026-05-05 10:49 | 47.40121 | 6.03361 | 33868 ft | 476 kts | 1° |
| 2026-05-05 10:50 | 47.46740 | 6.03542 | 33863 ft | 476 kts | 1° |
| 2026-05-05 10:50 | 47.53388 | 6.03693 | 33857 ft | 477 kts | 1° |
| 2026-05-05 10:51 | 47.60042 | 6.03831 | 33859 ft | 478 kts | 1° |
| 2026-05-05 10:51 | 47.66707 | 6.03977 | 33852 ft | 479 kts | 1° |
| 2026-05-05 10:52 | 47.73391 | 6.04133 | 33848 ft | 481 kts | 1° |
| 2026-05-05 10:52 | 47.80114 | 6.04305 | 33852 ft | 483 kts | 1° |
| 2026-05-05 10:53 | 47.86837 | 6.04514 | 33856 ft | 484 kts | 1° |
| 2026-05-05 10:53 | 47.93581 | 6.04742 | 33856 ft | 485 kts | 1° |
| 2026-05-05 10:54 | 48.00302 | 6.04952 | 33858 ft | 486 kts | 1° |
| 2026-05-05 10:54 | 48.07061 | 6.05159 | 33861 ft | 486 kts | 1° |
| 2026-05-05 10:55 | 48.13838 | 6.05381 | 33866 ft | 488 kts | 1° |
| 2026-05-05 10:55 | 48.20628 | 6.05598 | 33869 ft | 488 kts | 1° |
| 2026-05-05 10:56 | 48.27417 | 6.05804 | 33873 ft | 488 kts | 1° |
| 2026-05-05 10:56 | 48.34218 | 6.06022 | 33866 ft | 489 kts | 1° |
| 2026-05-05 10:57 | 48.41028 | 6.06344 | 33868 ft | 490 kts | 1° |
| 2026-05-05 10:57 | 48.47863 | 6.06696 | 33865 ft | 491 kts | 1° |
| 2026-05-05 10:58 | 48.54689 | 6.07026 | 33865 ft | 491 kts | 1° |
| 2026-05-05 10:58 | 48.61537 | 6.07346 | 33899 ft | 491 kts | 1° |
| 2026-05-05 10:59 | 48.68367 | 6.07668 | 33911 ft | 490 kts | 1° |
| 2026-05-05 10:59 | 48.75127 | 6.07983 | 33904 ft | 489 kts | 1° |
| 2026-05-05 11:00 | 48.81921 | 6.08314 | 33895 ft | 488 kts | 1° |
| 2026-05-05 11:00 | 48.88716 | 6.08647 | 33900 ft | 488 kts | 1° |
| 2026-05-05 11:01 | 48.95515 | 6.08969 | 33914 ft | 488 kts | 2° |
| 2026-05-05 11:01 | 49.02306 | 6.09296 | 33906 ft | 487 kts | 2° |
| 2026-05-05 11:02 | 49.09074 | 6.09634 | 33892 ft | 486 kts | 2° |
| 2026-05-05 11:02 | 49.15803 | 6.09958 | 33890 ft | 487 kts | 1° |
| 2026-05-05 11:03 | 49.22625 | 6.10274 | 33867 ft | 488 kts | 1° |
| 2026-05-05 11:03 | 49.29369 | 6.10603 | 33863 ft | 488 kts | 1° |
| 2026-05-05 11:04 | 49.36150 | 6.10939 | 33860 ft | 487 kts | 1° |
| 2026-05-05 11:04 | 49.41829 | 6.11114 | 33863 ft | 486 kts | 355° |
| 2026-05-05 11:05 | 49.48346 | 6.09098 | 33857 ft | 479 kts | 336° |
| 2026-05-05 11:05 | 49.54166 | 6.04376 | 33851 ft | 470 kts | 320° |
| 2026-05-05 11:06 | 49.59501 | 5.98547 | 33845 ft | 470 kts | 320° |
| 2026-05-05 11:06 | 49.64823 | 5.92697 | 33859 ft | 469 kts | 320° |
| 2026-05-05 11:07 | 49.70118 | 5.86847 | 33860 ft | 468 kts | 320° |
| 2026-05-05 11:07 | 49.75408 | 5.80975 | 33869 ft | 467 kts | 320° |
| 2026-05-05 11:08 | 49.80691 | 5.75105 | 33868 ft | 467 kts | 320° |
| 2026-05-05 11:08 | 49.85943 | 5.69271 | 33866 ft | 467 kts | 320° |
| 2026-05-05 11:09 | 49.91246 | 5.63362 | 33868 ft | 466 kts | 319° |
| 2026-05-05 11:09 | 49.96482 | 5.57520 | 33863 ft | 465 kts | 319° |
| 2026-05-05 11:10 | 50.01738 | 5.51634 | 33854 ft | 465 kts | 319° |
| 2026-05-05 11:10 | 50.06988 | 5.45726 | 33871 ft | 465 kts | 320° |
| 2026-05-05 11:11 | 50.12240 | 5.39790 | 33869 ft | 466 kts | 320° |
| 2026-05-05 11:11 | 50.17470 | 5.33934 | 33862 ft | 466 kts | 321° |
| 2026-05-05 11:12 | 50.22826 | 5.28162 | 33873 ft | 467 kts | 321° |
| 2026-05-05 11:12 | 50.28183 | 5.22422 | 33871 ft | 466 kts | 321° |
| 2026-05-05 11:13 | 50.33511 | 5.16640 | 33877 ft | 466 kts | 320° |
| 2026-05-05 11:13 | 50.38821 | 5.10825 | 33892 ft | 465 kts | 320° |
| 2026-05-05 11:14 | 50.44113 | 5.05021 | 33911 ft | 464 kts | 321° |
| 2026-05-05 11:14 | 50.49376 | 4.99250 | 33905 ft | 464 kts | 321° |
| 2026-05-05 11:15 | 50.54665 | 4.93427 | 33766 ft | 465 kts | 320° |
| 2026-05-05 11:15 | 50.57309 | 4.90504 | 33402 ft | 463 kts | 320° |
| 2026-05-05 11:15 | 50.59949 | 4.87582 | 33048 ft | 464 kts | 320° |
| 2026-05-05 11:15 | 50.62588 | 4.84660 | 32695 ft | 464 kts | 321° |
| 2026-05-05 11:16 | 50.65231 | 4.81734 | 32490 ft | 467 kts | 321° |
| 2026-05-05 11:16 | 50.67906 | 4.78748 | 31664 ft | 471 kts | 321° |
| 2026-05-05 11:16 | 50.70562 | 4.75792 | 31328 ft | 463 kts | 321° |
| 2026-05-05 11:16 | 50.73181 | 4.72883 | 30997 ft | 459 kts | 321° |
| 2026-05-05 11:17 | 50.75757 | 4.70025 | 30675 ft | 457 kts | 321° |
| 2026-05-05 11:17 | 50.78347 | 4.67143 | 30363 ft | 454 kts | 321° |
| 2026-05-05 11:17 | 50.80913 | 4.64276 | 30005 ft | 446 kts | 322° |
| 2026-05-05 11:17 | 50.83425 | 4.61463 | 29587 ft | 440 kts | 322° |
| 2026-05-05 11:18 | 50.85912 | 4.58674 | 29163 ft | 436 kts | 322° |
| 2026-05-05 11:18 | 50.88310 | 4.55764 | 28742 ft | 431 kts | 315° |
| 2026-05-05 11:18 | 50.90414 | 4.52427 | 28329 ft | 426 kts | 308° |
| 2026-05-05 11:18 | 50.92200 | 4.48716 | 27922 ft | 421 kts | 300° |
| 2026-05-05 11:19 | 50.93729 | 4.44784 | 27537 ft | 419 kts | 298° |
| 2026-05-05 11:19 | 50.95241 | 4.40853 | 27172 ft | 417 kts | 299° |
| 2026-05-05 11:19 | 50.96754 | 4.36917 | 26796 ft | 416 kts | 299° |
| 2026-05-05 11:19 | 50.98262 | 4.33005 | 26441 ft | 414 kts | 299° |
| 2026-05-05 11:20 | 50.99761 | 4.29114 | 26083 ft | 412 kts | 299° |
| 2026-05-05 11:20 | 51.01254 | 4.25236 | 25728 ft | 411 kts | 299° |
| 2026-05-05 11:20 | 51.02725 | 4.21405 | 25395 ft | 410 kts | 299° |
| 2026-05-05 11:20 | 51.04205 | 4.17539 | 25064 ft | 408 kts | 300° |
| 2026-05-05 11:21 | 51.05675 | 4.13689 | 24714 ft | 407 kts | 300° |
| 2026-05-05 11:21 | 51.07142 | 4.09843 | 24389 ft | 406 kts | 300° |
| 2026-05-05 11:21 | 51.08671 | 4.06058 | 24050 ft | 405 kts | 306° |
| 2026-05-05 11:21 | 51.10525 | 4.02673 | 23719 ft | 406 kts | 315° |
| 2026-05-05 11:22 | 51.12659 | 3.99835 | 23386 ft | 404 kts | 323° |
| 2026-05-05 11:22 | 51.14916 | 3.97187 | 22998 ft | 403 kts | 323° |
| 2026-05-05 11:22 | 51.17172 | 3.94524 | 22604 ft | 402 kts | 323° |
| 2026-05-05 11:22 | 51.19406 | 3.91875 | 22235 ft | 398 kts | 323° |
| 2026-05-05 11:23 | 51.21750 | 3.89544 | 21852 ft | 396 kts | 334° |
| 2026-05-05 11:23 | 51.24291 | 3.87922 | 21485 ft | 392 kts | 344° |
| 2026-05-05 11:23 | 51.26954 | 3.87029 | 21124 ft | 390 kts | 354° |
| 2026-05-05 11:23 | 51.29661 | 3.86821 | 20773 ft | 388 kts | 360° |
| 2026-05-05 11:24 | 51.32355 | 3.86767 | 20372 ft | 386 kts | 0° |
| 2026-05-05 11:24 | 51.35028 | 3.86710 | 19973 ft | 384 kts | 0° |
| 2026-05-05 11:24 | 51.37699 | 3.86649 | 19595 ft | 382 kts | 360° |
| 2026-05-05 11:24 | 51.40346 | 3.86584 | 19235 ft | 379 kts | 0° |
| 2026-05-05 11:25 | 51.42979 | 3.86519 | 18876 ft | 377 kts | 0° |
| 2026-05-05 11:25 | 51.45598 | 3.86452 | 18521 ft | 376 kts | 0° |
| 2026-05-05 11:25 | 51.48204 | 3.86386 | 18141 ft | 373 kts | 360° |
| 2026-05-05 11:25 | 51.50792 | 3.86324 | 17708 ft | 370 kts | 0° |
| 2026-05-05 11:26 | 51.53368 | 3.86266 | 17276 ft | 369 kts | 359° |
| 2026-05-05 11:26 | 51.55930 | 3.86207 | 16860 ft | 366 kts | 359° |
| 2026-05-05 11:26 | 51.58463 | 3.86146 | 16446 ft | 363 kts | 360° |
| 2026-05-05 11:26 | 51.60975 | 3.86085 | 16039 ft | 360 kts | 359° |
| 2026-05-05 11:27 | 51.63436 | 3.86028 | 15645 ft | 356 kts | 360° |
| 2026-05-05 11:27 | 51.65900 | 3.85972 | 15256 ft | 353 kts | 360° |
| 2026-05-05 11:27 | 51.68344 | 3.85914 | 14858 ft | 349 kts | 0° |
| 2026-05-05 11:27 | 51.70741 | 3.86317 | 14475 ft | 344 kts | 14° |
| 2026-05-05 11:28 | 51.72977 | 3.87602 | 14082 ft | 340 kts | 27° |
| 2026-05-05 11:28 | 51.74944 | 3.89649 | 13687 ft | 335 kts | 40° |
| 2026-05-05 11:28 | 51.76679 | 3.92151 | 13269 ft | 334 kts | 42° |
| 2026-05-05 11:28 | 51.78403 | 3.94650 | 12846 ft | 331 kts | 42° |
| 2026-05-05 11:29 | 51.80118 | 3.97123 | 12426 ft | 330 kts | 41° |
| 2026-05-05 11:29 | 51.81830 | 3.99588 | 12041 ft | 328 kts | 41° |
| 2026-05-05 11:29 | 51.83531 | 4.02034 | 11662 ft | 326 kts | 41° |
| 2026-05-05 11:29 | 51.85199 | 4.04438 | 11302 ft | 324 kts | 41° |
| 2026-05-05 11:30 | 51.86872 | 4.06858 | 10955 ft | 315 kts | 41° |
| 2026-05-05 11:30 | 51.88459 | 4.09160 | 10621 ft | 302 kts | 41° |
| 2026-05-05 11:30 | 51.90014 | 4.11418 | 10275 ft | 299 kts | 41° |
| 2026-05-05 11:30 | 51.91561 | 4.13664 | 9936 ft | 297 kts | 41° |
| 2026-05-05 11:31 | 51.93108 | 4.15851 | 9584 ft | 294 kts | 40° |
| 2026-05-05 11:31 | 51.94663 | 4.17993 | 9206 ft | 292 kts | 40° |
| 2026-05-05 11:31 | 51.96212 | 4.20107 | 8840 ft | 289 kts | 40° |
| 2026-05-05 11:31 | 51.97743 | 4.22201 | 8487 ft | 287 kts | 40° |
| 2026-05-05 11:32 | 51.99260 | 4.24281 | 8123 ft | 284 kts | 40° |
| 2026-05-05 11:32 | 52.00763 | 4.26350 | 7769 ft | 282 kts | 40° |
| 2026-05-05 11:32 | 52.02253 | 4.28407 | 7425 ft | 280 kts | 40° |
| 2026-05-05 11:32 | 52.03733 | 4.30451 | 7070 ft | 278 kts | 40° |
| 2026-05-05 11:33 | 52.05202 | 4.32480 | 6723 ft | 277 kts | 40° |
| 2026-05-05 11:33 | 52.06667 | 4.34512 | 6383 ft | 275 kts | 40° |
| 2026-05-05 11:33 | 52.08108 | 4.36519 | 6017 ft | 267 kts | 41° |
| 2026-05-05 11:33 | 52.09479 | 4.38432 | 5653 ft | 253 kts | 40° |
| 2026-05-05 11:34 | 52.10786 | 4.40257 | 5302 ft | 242 kts | 40° |
| 2026-05-05 11:34 | 52.12044 | 4.42015 | 4967 ft | 238 kts | 40° |
| 2026-05-05 11:34 | 52.13296 | 4.43768 | 4644 ft | 237 kts | 40° |
| 2026-05-05 11:34 | 52.14533 | 4.45495 | 4291 ft | 230 kts | 40° |
| 2026-05-05 11:35 | 52.15729 | 4.47165 | 3932 ft | 223 kts | 40° |
| 2026-05-05 11:35 | 52.16883 | 4.48778 | 3571 ft | 215 kts | 40° |
| 2026-05-05 11:35 | 52.18002 | 4.50344 | 3278 ft | 208 kts | 40° |
| 2026-05-05 11:35 | 52.19076 | 4.51847 | 3018 ft | 199 kts | 40° |
| 2026-05-05 11:36 | 52.20101 | 4.53281 | 2789 ft | 188 kts | 40° |
| 2026-05-05 11:36 | 52.21068 | 4.54635 | 2559 ft | 179 kts | 40° |
| 2026-05-05 11:36 | 52.21961 | 4.55940 | 2332 ft | 168 kts | 47° |
| 2026-05-05 11:36 | 52.22596 | 4.57420 | 2127 ft | 154 kts | 55° |
| 2026-05-05 11:37 | 52.23169 | 4.58868 | 2062 ft | 151 kts | 56° |
| 2026-05-05 11:37 | 52.23733 | 4.60314 | 1916 ft | 149 kts | 56° |
| 2026-05-05 11:37 | 52.24287 | 4.61742 | 1739 ft | 145 kts | 56° |
| 2026-05-05 11:37 | 52.24800 | 4.63065 | 1557 ft | 134 kts | 56° |
| 2026-05-05 11:38 | 52.25287 | 4.64327 | 1381 ft | 129 kts | 56° |
| 2026-05-05 11:38 | 52.25769 | 4.65572 | 1197 ft | 131 kts | 57° |
| 2026-05-05 11:38 | 52.26248 | 4.66813 | 1021 ft | 131 kts | 57° |
| 2026-05-05 11:38 | 52.26728 | 4.68057 | 840 ft | 129 kts | 56° |
| 2026-05-05 11:39 | 52.27199 | 4.69280 | 663 ft | 130 kts | 56° |
| 2026-05-05 11:39 | 52.27675 | 4.70514 | 489 ft | 127 kts | 56° |
| 2026-05-05 11:39 | 52.28148 | 4.71741 | 324 ft | 129 kts | 57° |
| 2026-05-05 11:39 | 52.28628 | 4.72978 | 144 ft | 128 kts | 58° |
| 2026-05-05 11:40 | 52.29096 | 4.74202 | 29 ft | 126 kts | 56° |
| 2026-05-05 11:40 | 52.29531 | 4.75329 | -2 ft | 101 kts | 58° |
| 2026-05-05 11:40 | 52.29807 | 4.76058 | -4 ft | 51 kts | 58° |
| 2026-05-05 11:40 | 52.29925 | 4.76364 | -4 ft | 25 kts | 58° |
| 2026-05-05 11:41 | 52.30041 | 4.76551 | -2 ft | 23 kts | 29° |
| 2026-05-05 11:41 | 52.30167 | 4.76659 | -1 ft | 17 kts | 28° |
| 2026-05-05 11:41 | 52.30272 | 4.76744 | -1 ft | 17 kts | 27° |
| 2026-05-05 11:41 | 52.30343 | 4.76901 | -1 ft | 18 kts | 59° |
| 2026-05-05 11:42 | 52.30410 | 4.77078 | -1 ft | 19 kts | 58° |
| 2026-05-05 11:42 | 52.30479 | 4.77259 | -1 ft | 19 kts | 58° |
| 2026-05-05 11:42 | 52.30550 | 4.77441 | -1 ft | 17 kts | 57° |
| 2026-05-05 11:42 | 52.30633 | 4.77580 | -1 ft | 18 kts | 20° |
| 2026-05-05 11:43 | 52.30760 | 4.77598 | -1 ft | 19 kts | 4° |
| 2026-05-05 11:43 | 52.30898 | 4.77611 | -1 ft | 20 kts | 3° |
| 2026-05-05 11:43 | 52.31042 | 4.77624 | -1 ft | 21 kts | 2° |
| 2026-05-05 11:43 | 52.31193 | 4.77638 | -1 ft | 22 kts | 4° |
| 2026-05-05 11:44 | 52.31335 | 4.77652 | -1 ft | 19 kts | 3° |
| 2026-05-05 11:44 | 52.31469 | 4.77620 | -1 ft | 21 kts | 327° |
| 2026-05-05 11:44 | 52.31569 | 4.77441 | -1 ft | 22 kts | 293° |
| 2026-05-05 11:44 | 52.31572 | 4.77216 | -1 ft | 15 kts | 266° |
| 2026-05-05 11:45 | 52.31566 | 4.77059 | -1 ft | 13 kts | 267° |
| 2026-05-05 11:45 | 52.31563 | 4.76916 | -1 ft | 12 kts | 267° |
| 2026-05-05 11:45 | 52.31558 | 4.76785 | -1 ft | 11 kts | 266° |
| 2026-05-05 11:45 | 52.31552 | 4.76638 | -1 ft | 13 kts | 267° |
| 2026-05-05 11:46 | 52.31548 | 4.76500 | -1 ft | 12 kts | 266° |
| 2026-05-05 11:46 | 52.31543 | 4.76376 | -1 ft | 10 kts | 267° |
| 2026-05-05 11:46 | 52.31539 | 4.76248 | -1 ft | 15 kts | 267° |
| 2026-05-05 11:46 | 52.31532 | 4.76032 | -1 ft | 21 kts | 267° |
| 2026-05-05 11:47 | 52.31523 | 4.75778 | -1 ft | 23 kts | 266° |
| 2026-05-05 11:47 | 52.31516 | 4.75549 | -1 ft | 13 kts | 266° |
| 2026-05-05 11:47 | 52.31478 | 4.75466 | -1 ft | 9 kts | 183° |
| 2026-05-05 11:47 | 52.31415 | 4.75471 | -1 ft | 9 kts | 176° |
| 2026-05-05 11:48 | 52.31277 | 4.75484 | -1 ft | 11 kts | 176° |
| 2026-05-05 11:48 | 52.31203 | 4.75491 | -1 ft | 10 kts | 176° |
| 2026-05-05 11:48 | 52.31136 | 4.75497 | -1 ft | 9 kts | 178° |
| 2026-05-05 11:49 | 52.31095 | 4.75480 | -1 ft | 5 kts | 192° |
| 2026-05-05 11:49 | 52.31070 | 4.75494 | -1 ft | 3 kts | 151° |
| 2026-05-05 11:49 | 52.31058 | 4.75506 | -1 ft | 0 kts | 149° |
| 2026-05-05 11:53 | 52.29386 | 4.74953 | 0 ft | 0 kts | 56° |